Fortune Amaryllis — VRDT3 — position and weather

sailwx.info

Track history (hours):
 
Tides and Currents Weather Stations Pressure Air Temp Water Temp Dewpoint Dewpoint Depression Visibility Wind Speed Wind Dir Waves Ship Positions

Fortune Amaryllis

Last reported at 2016-Apr-27 03:06 UTC. Time now 2016-May-27 14:19 UTC.
Position N 27°05' W 083°13'.
Warning: this ship's position is 30 days out of date.

Length 175 m; draft 9.1 m.

Type: Cargo ship. MMSI: 477046800.

Date/timePositionNaut miles runAvg speedWind from/ knotsBaromVisibWave heightAir tempDewpointWater temp
2016-Apr-27 03:06N 27°05' W 083°13'713.2
2016-Apr-27 02:33N 27°12' W 083°13'1212.6
2016-Apr-27 01:33N 27°23' W 083°07'1312.8
2016-Apr-27 00:33N 27°34' W 083°00'1411.8
2016-Apr-26 23:24N 27°36' W 082°45'1012.2
2016-Apr-26 22:33N 27°41' W 082°35'1110.9
2016-Apr-26 21:33N 27°49' W 082°27'6 5.9
2016-Apr-26 20:33N 27°55' W 082°25'0 0.0
2016-Apr-26 19:31N 27°55' W 082°25'0 0.0
2016-Apr-26 18:31N 27°55' W 082°25'0 0.0
2016-Apr-26 17:31N 27°55' W 082°25'0 0.0
2016-Apr-26 16:31N 27°55' W 082°25'0 0.0
2016-Apr-26 15:31N 27°55' W 082°25'0 0.0
2016-Apr-26 14:31N 27°55' W 082°25'0 0.0
2016-Apr-26 13:31N 27°55' W 082°25'0 0.0
2016-Apr-26 12:31N 27°55' W 082°25'0 0.0
2016-Apr-26 11:31N 27°55' W 082°25'0 0.0
2016-Apr-26 10:31N 27°55' W 082°25'0 0.0
2016-Apr-26 09:31N 27°55' W 082°25'0 0.0
2016-Apr-26 08:28N 27°55' W 082°25'0 0.0
2016-Apr-26 07:31N 27°55' W 082°25'0 0.0
2016-Apr-26 06:31N 27°55' W 082°25'0 0.0
2016-Apr-26 05:31N 27°55' W 082°25'0 0.0
2016-Apr-26 04:31N 27°55' W 082°25'0 0.0
2016-Apr-26 03:31N 27°55' W 082°25'0 0.0
2016-Apr-26 02:31N 27°55' W 082°25'0 0.0
2016-Apr-26 01:31N 27°55' W 082°25'0 0.0
2016-Apr-26 00:31N 27°55' W 082°25'0 0.0
2016-Apr-25 23:31N 27°55' W 082°25'0 0.1
2016-Apr-25 22:33N 27°55' W 082°25'4 4.1
2016-Apr-25 21:33N 27°51' W 082°25'1 1.5
2016-Apr-25 20:33N 27°51' W 082°24'0 0.0
2016-Apr-25 19:21N 27°51' W 082°24'0 0.0
2016-Apr-25 18:33N 27°51' W 082°24'0 0.0
2016-Apr-25 17:33N 27°51' W 082°24'0 0.0
2016-Apr-25 16:33N 27°51' W 082°24'0 0.0
2016-Apr-25 15:30N 27°51' W 082°24'0 0.0
2016-Apr-25 14:33N 27°51' W 082°24'0 0.0
2016-Apr-25 13:33N 27°51' W 082°24'0 0.0
2016-Apr-25 12:33N 27°51' W 082°24'0 0.0
2016-Apr-25 11:33N 27°51' W 082°24'0 0.0
2016-Apr-25 10:30N 27°51' W 082°24'0 0.0
2016-Apr-25 09:33N 27°51' W 082°24'0 0.0
2016-Apr-25 08:33N 27°51' W 082°24'0 0.0
2016-Apr-25 07:33N 27°51' W 082°24'0 0.0
2016-Apr-25 06:33N 27°51' W 082°24'0 0.0
2016-Apr-25 05:33N 27°51' W 082°24'0 0.0
2016-Apr-25 04:33N 27°51' W 082°24'0 0.0
2016-Apr-25 03:33N 27°51' W 082°24'0 0.0
2016-Apr-25 02:33N 27°51' W 082°24'0 0.0
2016-Apr-25 01:33N 27°51' W 082°24'0 0.0
2016-Apr-25 00:33N 27°51' W 082°24'0 0.0
2016-Apr-24 23:33N 27°51' W 082°24'0 0.0
2016-Apr-24 22:33N 27°51' W 082°24'0 0.0
2016-Apr-24 21:33N 27°51' W 082°24'0 0.0
2016-Apr-24 20:33N 27°51' W 082°24'0 0.0
2016-Apr-24 19:33N 27°51' W 082°24'0 0.0
2016-Apr-24 18:33N 27°51' W 082°24'0 0.0
2016-Apr-24 17:33N 27°51' W 082°24'0 0.0
2016-Apr-24 16:33N 27°51' W 082°24'0 0.0
2016-Apr-24 15:33N 27°51' W 082°24'0 0.0
2016-Apr-24 14:33N 27°51' W 082°24'0 0.0
2016-Apr-24 13:33N 27°51' W 082°24'1 1.0
2016-Apr-24 12:33N 27°51' W 082°25'8 8.0
2016-Apr-24 11:33N 27°46' W 082°31'1312.5
2016-Apr-24 10:33N 27°37' W 082°41'1312.7
2016-Apr-24 09:30N 27°36' W 082°56'  
Track history (hours):
 
Tides and Currents Weather Stations Pressure Air Temp Water Temp Dewpoint Dewpoint Depression Visibility Wind Speed Wind Dir Waves Ship Positions

Fortune Amaryllis

Last reported at 2016-Apr-27 03:06 UTC. Time now 2016-May-27 14:19 UTC.
Position N 27°05' W 083°13'.
Warning: this ship's position is 30 days out of date.

Length 175 m; draft 9.1 m.

Type: Cargo ship. MMSI: 477046800.

Date/timePositionNaut miles runAvg speedWind from/ knotsBaromVisibWave heightAir tempDewpointWater temp
2016-Apr-27 03:06N 27°05' W 083°13'713.2
2016-Apr-27 02:33N 27°12' W 083°13'1212.6
2016-Apr-27 01:33N 27°23' W 083°07'1312.8
2016-Apr-27 00:33N 27°34' W 083°00'1411.8
2016-Apr-26 23:24N 27°36' W 082°45'1012.2
2016-Apr-26 22:33N 27°41' W 082°35'1110.9
2016-Apr-26 21:33N 27°49' W 082°27'6 5.9
2016-Apr-26 20:33N 27°55' W 082°25'0 0.0
2016-Apr-26 19:31N 27°55' W 082°25'0 0.0
2016-Apr-26 18:31N 27°55' W 082°25'0 0.0
2016-Apr-26 17:31N 27°55' W 082°25'0 0.0
2016-Apr-26 16:31N 27°55' W 082°25'0 0.0
2016-Apr-26 15:31N 27°55' W 082°25'0 0.0
2016-Apr-26 14:31N 27°55' W 082°25'0 0.0
2016-Apr-26 13:31N 27°55' W 082°25'0 0.0
2016-Apr-26 12:31N 27°55' W 082°25'0 0.0
2016-Apr-26 11:31N 27°55' W 082°25'0 0.0
2016-Apr-26 10:31N 27°55' W 082°25'0 0.0
2016-Apr-26 09:31N 27°55' W 082°25'0 0.0
2016-Apr-26 08:28N 27°55' W 082°25'0 0.0
2016-Apr-26 07:31N 27°55' W 082°25'0 0.0
2016-Apr-26 06:31N 27°55' W 082°25'0 0.0
2016-Apr-26 05:31N 27°55' W 082°25'0 0.0
2016-Apr-26 04:31N 27°55' W 082°25'0 0.0
2016-Apr-26 03:31N 27°55' W 082°25'0 0.0
2016-Apr-26 02:31N 27°55' W 082°25'0 0.0
2016-Apr-26 01:31N 27°55' W 082°25'0 0.0
2016-Apr-26 00:31N 27°55' W 082°25'0 0.0
2016-Apr-25 23:31N 27°55' W 082°25'0 0.1
2016-Apr-25 22:33N 27°55' W 082°25'4 4.1
2016-Apr-25 21:33N 27°51' W 082°25'1 1.5
2016-Apr-25 20:33N 27°51' W 082°24'0 0.0
2016-Apr-25 19:21N 27°51' W 082°24'0 0.0
2016-Apr-25 18:33N 27°51' W 082°24'0 0.0
2016-Apr-25 17:33N 27°51' W 082°24'0 0.0
2016-Apr-25 16:33N 27°51' W 082°24'0 0.0
2016-Apr-25 15:30N 27°51' W 082°24'0 0.0
2016-Apr-25 14:33N 27°51' W 082°24'0 0.0
2016-Apr-25 13:33N 27°51' W 082°24'0 0.0
2016-Apr-25 12:33N 27°51' W 082°24'0 0.0
2016-Apr-25 11:33N 27°51' W 082°24'0 0.0
2016-Apr-25 10:30N 27°51' W 082°24'0 0.0
2016-Apr-25 09:33N 27°51' W 082°24'0 0.0
2016-Apr-25 08:33N 27°51' W 082°24'0 0.0
2016-Apr-25 07:33N 27°51' W 082°24'0 0.0
2016-Apr-25 06:33N 27°51' W 082°24'0 0.0
2016-Apr-25 05:33N 27°51' W 082°24'0 0.0
2016-Apr-25 04:33N 27°51' W 082°24'0 0.0
2016-Apr-25 03:33N 27°51' W 082°24'0 0.0
2016-Apr-25 02:33N 27°51' W 082°24'0 0.0
2016-Apr-25 01:33N 27°51' W 082°24'0 0.0
2016-Apr-25 00:33N 27°51' W 082°24'0 0.0
2016-Apr-24 23:33N 27°51' W 082°24'0 0.0
2016-Apr-24 22:33N 27°51' W 082°24'0 0.0
2016-Apr-24 21:33N 27°51' W 082°24'0 0.0
2016-Apr-24 20:33N 27°51' W 082°24'0 0.0
2016-Apr-24 19:33N 27°51' W 082°24'0 0.0
2016-Apr-24 18:33N 27°51' W 082°24'0 0.0
2016-Apr-24 17:33N 27°51' W 082°24'0 0.0
2016-Apr-24 16:33N 27°51' W 082°24'0 0.0
2016-Apr-24 15:33N 27°51' W 082°24'0 0.0
2016-Apr-24 14:33N 27°51' W 082°24'0 0.0
2016-Apr-24 13:33N 27°51' W 082°24'1 1.0
2016-Apr-24 12:33N 27°51' W 082°25'8 8.0
2016-Apr-24 11:33N 27°46' W 082°31'1312.5
2016-Apr-24 10:33N 27°37' W 082°41'1312.7
2016-Apr-24 09:30N 27°36' W 082°56'  

Dump ship's entire track history